sensor_id;sensor_type;location;lat;lon;timestamp;pressure;altitude;pressure_sealevel;temperature;humidity
22605;BME280;11469;49.024;8.246;2022-08-19T00:01:37;99973.00;;;20.01;88.73
22605;BME280;11469;49.024;8.246;2022-08-19T00:04:07;99969.00;;;19.98;88.94
22605;BME280;11469;49.024;8.246;2022-08-19T00:06:35;99971.84;;;19.98;89.16
22605;BME280;11469;49.024;8.246;2022-08-19T00:09:02;99971.91;;;19.95;89.32
22605;BME280;11469;49.024;8.246;2022-08-19T00:11:29;99967.53;;;19.90;89.57
22605;BME280;11469;49.024;8.246;2022-08-19T00:13:55;99978.53;;;19.88;89.63
22605;BME280;11469;49.024;8.246;2022-08-19T00:16:23;99977.72;;;19.87;89.82
22605;BME280;11469;49.024;8.246;2022-08-19T00:18:49;99976.91;;;19.87;90.08
22605;BME280;11469;49.024;8.246;2022-08-19T00:21:14;99980.13;;;19.89;90.15
22605;BME280;11469;49.024;8.246;2022-08-19T00:23:41;99967.53;;;19.90;90.12
22605;BME280;11469;49.024;8.246;2022-08-19T00:26:09;99971.16;;;19.91;90.04
22605;BME280;11469;49.024;8.246;2022-08-19T00:28:35;99964.25;;;19.92;89.94
22605;BME280;11469;49.024;8.246;2022-08-19T00:31:02;99958.13;;;19.93;89.74
22605;BME280;11469;49.024;8.246;2022-08-19T00:33:29;99954.91;;;19.91;90.00
22605;BME280;11469;49.024;8.246;2022-08-19T00:35:58;99961.84;;;19.90;89.73
22605;BME280;11469;49.024;8.246;2022-08-19T00:38:23;99972.19;;;19.80;90.21
22605;BME280;11469;49.024;8.246;2022-08-19T00:40:49;99976.72;;;19.78;90.57
22605;BME280;11469;49.024;8.246;2022-08-19T00:43:19;99979.50;;;19.81;90.58
22605;BME280;11469;49.024;8.246;2022-08-19T00:45:45;99983.13;;;19.82;90.33
22605;BME280;11469;49.024;8.246;2022-08-19T00:48:11;99990.00;;;19.84;90.21
22605;BME280;11469;49.024;8.246;2022-08-19T00:50:39;99988.72;;;19.85;90.11
22605;BME280;11469;49.024;8.246;2022-08-19T00:53:06;99980.13;;;19.89;90.00
22605;BME280;11469;49.024;8.246;2022-08-19T00:55:33;99965.03;;;19.92;89.95
22605;BME280;11469;49.024;8.246;2022-08-19T00:58:04;99948.78;;;19.93;89.71
22605;BME280;11469;49.024;8.246;2022-08-19T01:00:33;99939.81;;;19.94;89.74
22605;BME280;11469;49.024;8.246;2022-08-19T01:03:14;99934.13;;;19.94;89.72
22605;BME280;11469;49.024;8.246;2022-08-19T01:05:42;99933.41;;;19.90;89.63
22605;BME280;11469;49.024;8.246;2022-08-19T01:08:09;99946.88;;;19.86;89.84
22605;BME280;11469;49.024;8.246;2022-08-19T01:10:42;99958.63;;;19.88;90.09
22605;BME280;11469;49.024;8.246;2022-08-19T01:13:09;99966.06;;;19.82;90.31
22605;BME280;11469;49.024;8.246;2022-08-19T01:15:42;99967.59;;;19.86;90.27
22605;BME280;11469;49.024;8.246;2022-08-19T01:18:11;99975.78;;;19.84;90.26
22605;BME280;11469;49.024;8.246;2022-08-19T01:20:37;99973.81;;;19.81;90.44
22605;BME280;11469;49.024;8.246;2022-08-19T01:23:04;99956.81;;;19.78;90.38
22605;BME280;11469;49.024;8.246;2022-08-19T01:25:34;99965.03;;;19.72;90.76
22605;BME280;11469;49.024;8.246;2022-08-19T01:28:01;99963.38;;;19.75;90.65
22605;BME280;11469;49.024;8.246;2022-08-19T01:30:31;99970.34;;;19.70;91.15
22605;BME280;11469;49.024;8.246;2022-08-19T01:32:57;99965.47;;;19.71;91.30
22605;BME280;11469;49.024;8.246;2022-08-19T01:35:27;99968.69;;;19.73;91.02
22605;BME280;11469;49.024;8.246;2022-08-19T01:37:56;99967.81;;;19.76;91.14
22605;BME280;11469;49.024;8.246;2022-08-19T01:40:25;99971.81;;;19.78;91.06
22605;BME280;11469;49.024;8.246;2022-08-19T01:42:51;99982.75;;;19.80;91.24
22605;BME280;11469;49.024;8.246;2022-08-19T01:45:19;99980.72;;;19.80;91.01
22605;BME280;11469;49.024;8.246;2022-08-19T01:47:45;99984.38;;;19.81;91.20
22605;BME280;11469;49.024;8.246;2022-08-19T01:50:12;99978.25;;;19.82;91.37
22605;BME280;11469;49.024;8.246;2022-08-19T01:52:39;99984.75;;;19.83;91.05
22605;BME280;11469;49.024;8.246;2022-08-19T01:55:09;99976.13;;;19.86;90.93
22605;BME280;11469;49.024;8.246;2022-08-19T01:57:35;99975.63;;;19.92;91.09
22605;BME280;11469;49.024;8.246;2022-08-19T02:00:08;99970.38;;;19.90;90.93
22605;BME280;11469;49.024;8.246;2022-08-19T02:02:34;99970.09;;;19.84;91.35
22605;BME280;11469;49.024;8.246;2022-08-19T02:04:59;99962.69;;;19.87;90.96
22605;BME280;11469;49.024;8.246;2022-08-19T02:07:25;99968.91;;;19.82;90.77
22605;BME280;11469;49.024;8.246;2022-08-19T02:09:50;99968.13;;;19.81;91.06
22605;BME280;11469;49.024;8.246;2022-08-19T02:12:16;99969.72;;;19.82;91.02
22605;BME280;11469;49.024;8.246;2022-08-19T02:14:42;99973.88;;;19.78;91.17
22605;BME280;11469;49.024;8.246;2022-08-19T02:17:08;99970.72;;;19.72;91.81
22605;BME280;11469;49.024;8.246;2022-08-19T02:19:34;99974.88;;;19.68;92.10
22605;BME280;11469;49.024;8.246;2022-08-19T02:21:59;99976.53;;;19.65;92.37
22605;BME280;11469;49.024;8.246;2022-08-19T02:24:26;99975.28;;;19.66;92.48
22605;BME280;11469;49.024;8.246;2022-08-19T02:26:52;99968.00;;;19.65;92.96
22605;BME280;11469;49.024;8.246;2022-08-19T02:29:18;99968.38;;;19.67;92.84
22605;BME280;11469;49.024;8.246;2022-08-19T02:31:43;99969.97;;;19.68;92.82
22605;BME280;11469;49.024;8.246;2022-08-19T02:34:08;99971.53;;;19.73;92.74
22605;BME280;11469;49.024;8.246;2022-08-19T02:36:34;99966.28;;;19.71;92.85
22605;BME280;11469;49.024;8.246;2022-08-19T02:38:59;99973.94;;;19.74;92.75
22605;BME280;11469;49.024;8.246;2022-08-19T02:41:28;99966.56;;;19.77;92.50
22605;BME280;11469;49.024;8.246;2022-08-19T02:43:56;99972.19;;;19.80;92.32
22605;BME280;11469;49.024;8.246;2022-08-19T02:46:29;99956.75;;;19.81;92.33
22605;BME280;11469;49.024;8.246;2022-08-19T02:48:57;99965.28;;;19.81;92.25
22605;BME280;11469;49.024;8.246;2022-08-19T02:51:28;99960.09;;;19.76;92.60
22605;BME280;11469;49.024;8.246;2022-08-19T02:53:55;99964.66;;;19.70;92.65
22605;BME280;11469;49.024;8.246;2022-08-19T02:56:22;99959.03;;;19.67;92.97
22605;BME280;11469;49.024;8.246;2022-08-19T02:58:48;99964.31;;;19.68;92.20
22605;BME280;11469;49.024;8.246;2022-08-19T03:01:40;99949.34;;;19.64;92.10
22605;BME280;11469;49.024;8.246;2022-08-19T03:04:14;99953.91;;;19.58;92.29
22605;BME280;11469;49.024;8.246;2022-08-19T03:06:42;99947.81;;;19.60;92.44
22605;BME280;11469;49.024;8.246;2022-08-19T03:09:08;99955.91;;;19.61;92.16
22605;BME280;11469;49.024;8.246;2022-08-19T03:11:34;99962.50;;;19.54;92.33
22605;BME280;11469;49.024;8.246;2022-08-19T03:14:01;99968.63;;;19.53;92.72
22605;BME280;11469;49.024;8.246;2022-08-19T03:16:31;99973.44;;;19.56;92.51
22605;BME280;11469;49.024;8.246;2022-08-19T03:18:57;99967.38;;;19.54;92.78
22605;BME280;11469;49.024;8.246;2022-08-19T03:21:27;99964.56;;;19.54;92.76
22605;BME280;11469;49.024;8.246;2022-08-19T03:23:58;99969.81;;;19.55;93.11
22605;BME280;11469;49.024;8.246;2022-08-19T03:26:24;99974.13;;;19.64;92.25
22605;BME280;11469;49.024;8.246;2022-08-19T03:28:49;99972.16;;;19.61;92.49
22605;BME280;11469;49.024;8.246;2022-08-19T03:31:17;99969.38;;;19.57;92.71
22605;BME280;11469;49.024;8.246;2022-08-19T03:33:43;99971.78;;;19.59;92.83
22605;BME280;11469;49.024;8.246;2022-08-19T03:36:12;99974.63;;;19.59;92.68
22605;BME280;11469;49.024;8.246;2022-08-19T03:38:42;99971.34;;;19.60;92.57
22605;BME280;11469;49.024;8.246;2022-08-19T03:41:11;99971.84;;;19.55;92.63
22605;BME280;11469;49.024;8.246;2022-08-19T03:43:38;99972.56;;;19.59;92.22
22605;BME280;11469;49.024;8.246;2022-08-19T03:46:10;99977.53;;;19.55;91.95
22605;BME280;11469;49.024;8.246;2022-08-19T03:48:37;99971.78;;;19.59;91.57
22605;BME280;11469;49.024;8.246;2022-08-19T03:51:05;99983.09;;;19.62;91.30
22605;BME280;11469;49.024;8.246;2022-08-19T03:53:32;99988.03;;;19.58;91.19
22605;BME280;11469;49.024;8.246;2022-08-19T03:55:58;99989.63;;;19.59;91.03
22605;BME280;11469;49.024;8.246;2022-08-19T03:58:29;99989.19;;;19.61;90.98
22605;BME280;11469;49.024;8.246;2022-08-19T04:00:58;99994.44;;;19.62;91.24
22605;BME280;11469;49.024;8.246;2022-08-19T04:03:24;99985.50;;;19.64;91.01
22605;BME280;11469;49.024;8.246;2022-08-19T04:05:51;99987.16;;;19.61;91.07
22605;BME280;11469;49.024;8.246;2022-08-19T04:08:16;99985.50;;;19.64;91.14
22605;BME280;11469;49.024;8.246;2022-08-19T04:10:47;99980.25;;;19.62;91.13
22605;BME280;11469;49.024;8.246;2022-08-19T04:13:15;99980.69;;;19.61;91.53
22605;BME280;11469;49.024;8.246;2022-08-19T04:15:42;99997.28;;;19.62;91.58
22605;BME280;11469;49.024;8.246;2022-08-19T04:18:09;99982.72;;;19.60;91.74
22605;BME280;11469;49.024;8.246;2022-08-19T04:20:46;99984.75;;;19.60;91.89
22605;BME280;11469;49.024;8.246;2022-08-19T04:23:12;99996.97;;;19.57;91.74
22605;BME280;11469;49.024;8.246;2022-08-19T04:25:40;99996.63;;;19.54;91.91
22605;BME280;11469;49.024;8.246;2022-08-19T04:28:06;99997.06;;;19.49;91.92
22605;BME280;11469;49.024;8.246;2022-08-19T04:30:44;99993.00;;;19.50;92.05
22605;BME280;11469;49.024;8.246;2022-08-19T04:33:11;99992.19;;;19.50;91.86
22605;BME280;11469;49.024;8.246;2022-08-19T04:35:40;99992.19;;;19.50;91.43
22605;BME280;11469;49.024;8.246;2022-08-19T04:38:07;99982.50;;;19.47;91.53
22605;BME280;11469;49.024;8.246;2022-08-19T04:40:32;99988.16;;;19.51;91.79
22605;BME280;11469;49.024;8.246;2022-08-19T04:43:16;99989.84;;;19.45;91.84
22605;BME280;11469;49.024;8.246;2022-08-19T04:45:45;99995.59;;;19.41;92.08
22605;BME280;11469;49.024;8.246;2022-08-19T04:48:11;99998.16;;;19.36;92.32
22605;BME280;11469;49.024;8.246;2022-08-19T04:50:40;99991.66;;;19.35;92.19
22605;BME280;11469;49.024;8.246;2022-08-19T04:53:06;99991.28;;;19.33;92.40
22605;BME280;11469;49.024;8.246;2022-08-19T04:55:31;99997.78;;;19.34;92.35
22605;BME280;11469;49.024;8.246;2022-08-19T04:57:57;99989.63;;;19.36;92.02
22605;BME280;11469;49.024;8.246;2022-08-19T05:00:23;100002.88;;;19.42;91.96
22605;BME280;11469;49.024;8.246;2022-08-19T05:02:48;100004.91;;;19.42;91.66
22605;BME280;11469;49.024;8.246;2022-08-19T05:05:14;100004.84;;;19.45;91.45
22605;BME280;11469;49.024;8.246;2022-08-19T05:07:40;100018.19;;;19.48;90.96
22605;BME280;11469;49.024;8.246;2022-08-19T05:10:06;100010.91;;;19.47;90.77
22605;BME280;11469;49.024;8.246;2022-08-19T05:12:32;100018.19;;;19.52;90.86
22605;BME280;11469;49.024;8.246;2022-08-19T05:14:59;100018.50;;;19.58;90.79
22605;BME280;11469;49.024;8.246;2022-08-19T05:17:25;100024.13;;;19.61;90.65
22605;BME280;11469;49.024;8.246;2022-08-19T05:19:51;100026.03;;;19.68;90.72
22605;BME280;11469;49.024;8.246;2022-08-19T05:22:35;100028.50;;;19.66;91.36
22605;BME280;11469;49.024;8.246;2022-08-19T05:25:03;100038.56;;;19.70;91.21
22605;BME280;11469;49.024;8.246;2022-08-19T05:27:29;100039.75;;;19.73;90.98
22605;BME280;11469;49.024;8.246;2022-08-19T05:29:54;100044.25;;;19.70;90.85
22605;BME280;11469;49.024;8.246;2022-08-19T05:32:20;100045.88;;;19.71;90.54
22605;BME280;11469;49.024;8.246;2022-08-19T05:34:47;100053.97;;;19.73;90.61
22605;BME280;11469;49.024;8.246;2022-08-19T05:37:12;100059.22;;;19.74;90.43
22605;BME280;11469;49.024;8.246;2022-08-19T05:39:37;100060.41;;;19.77;90.27
22605;BME280;11469;49.024;8.246;2022-08-19T05:42:06;100056.69;;;19.80;90.36
22605;BME280;11469;49.024;8.246;2022-08-19T05:44:35;100063.94;;;19.84;90.17
22605;BME280;11469;49.024;8.246;2022-08-19T05:47:02;100065.44;;;19.89;89.33
22605;BME280;11469;49.024;8.246;2022-08-19T05:49:30;100069.47;;;19.92;88.92
22605;BME280;11469;49.024;8.246;2022-08-19T05:51:57;100076.69;;;19.96;88.64
22605;BME280;11469;49.024;8.246;2022-08-19T05:54:23;100073.78;;;20.00;87.84
22605;BME280;11469;49.024;8.246;2022-08-19T05:56:53;100079.78;;;20.05;87.57
22605;BME280;11469;49.024;8.246;2022-08-19T05:59:19;100077.69;;;20.09;87.38
22605;BME280;11469;49.024;8.246;2022-08-19T06:01:48;100088.13;;;20.16;86.80
22605;BME280;11469;49.024;8.246;2022-08-19T06:04:17;100090.03;;;20.23;86.99
22605;BME280;11469;49.024;8.246;2022-08-19T06:06:45;100089.97;;;20.26;86.97
22605;BME280;11469;49.024;8.246;2022-08-19T06:09:10;100098.44;;;20.30;86.63
22605;BME280;11469;49.024;8.246;2022-08-19T06:11:42;100097.47;;;20.36;86.36
22605;BME280;11469;49.024;8.246;2022-08-19T06:14:11;100093.34;;;20.41;85.17
22605;BME280;11469;49.024;8.246;2022-08-19T06:16:38;100087.53;;;20.48;84.66
22605;BME280;11469;49.024;8.246;2022-08-19T06:19:08;100088.25;;;20.52;83.60
22605;BME280;11469;49.024;8.246;2022-08-19T06:21:35;100088.25;;;20.52;82.00
22605;BME280;11469;49.024;8.246;2022-08-19T06:24:03;100089.78;;;20.57;82.12
22605;BME280;11469;49.024;8.246;2022-08-19T06:26:30;100077.91;;;20.62;81.58
22605;BME280;11469;49.024;8.246;2022-08-19T06:28:55;100089.94;;;20.69;81.65
22605;BME280;11469;49.024;8.246;2022-08-19T06:31:26;100093.03;;;20.78;81.14
22605;BME280;11469;49.024;8.246;2022-08-19T06:33:52;100087.16;;;20.85;80.95
22605;BME280;11469;49.024;8.246;2022-08-19T06:38:49;100096.19;;;21.00;79.55
22605;BME280;11469;49.024;8.246;2022-08-19T06:41:14;100107.00;;;21.09;79.97
22605;BME280;11469;49.024;8.246;2022-08-19T06:43:40;100110.06;;;21.18;79.71
22605;BME280;11469;49.024;8.246;2022-08-19T06:46:15;100105.84;;;21.26;79.33
22605;BME280;11469;49.024;8.246;2022-08-19T06:48:41;100102.19;;;21.42;78.02
22605;BME280;11469;49.024;8.246;2022-08-19T06:51:07;100105.47;;;21.40;77.46
22605;BME280;11469;49.024;8.246;2022-08-19T06:53:33;100102.53;;;21.44;76.62
22605;BME280;11469;49.024;8.246;2022-08-19T06:55:59;100099.44;;;21.55;76.44
22605;BME280;11469;49.024;8.246;2022-08-19T06:58:30;100108.09;;;21.67;76.52
22605;BME280;11469;49.024;8.246;2022-08-19T07:00:59;100111.56;;;21.75;74.90
22605;BME280;11469;49.024;8.246;2022-08-19T07:03:26;100104.78;;;21.85;74.61
22605;BME280;11469;49.024;8.246;2022-08-19T07:05:51;100110.94;;;22.00;74.59
22605;BME280;11469;49.024;8.246;2022-08-19T07:08:17;100114.72;;;22.13;73.84
22605;BME280;11469;49.024;8.246;2022-08-19T07:10:44;100109.75;;;22.30;73.86
22605;BME280;11469;49.024;8.246;2022-08-19T07:13:10;100119.28;;;22.39;72.22
22605;BME280;11469;49.024;8.246;2022-08-19T07:15:36;100111.34;;;22.47;71.35
22605;BME280;11469;49.024;8.246;2022-08-19T07:18:02;100112.28;;;22.57;70.82
22605;BME280;11469;49.024;8.246;2022-08-19T07:20:28;100107.09;;;22.68;70.87
22605;BME280;11469;49.024;8.246;2022-08-19T07:22:53;100108.47;;;22.76;69.15
22605;BME280;11469;49.024;8.246;2022-08-19T07:25:19;100105.88;;;22.81;68.89
22605;BME280;11469;49.024;8.246;2022-08-19T07:27:48;100103.50;;;22.93;68.96
22605;BME280;11469;49.024;8.246;2022-08-19T07:30:14;100110.63;;;23.01;68.45
22605;BME280;11469;49.024;8.246;2022-08-19T07:32:40;100105.75;;;23.14;68.23
22605;BME280;11469;49.024;8.246;2022-08-19T07:35:06;100106.28;;;23.22;68.29
22605;BME280;11469;49.024;8.246;2022-08-19T07:37:32;100102.44;;;23.41;66.87
22605;BME280;11469;49.024;8.246;2022-08-19T07:39:59;100111.03;;;23.54;66.57
22605;BME280;11469;49.024;8.246;2022-08-19T07:42:25;100102.00;;;23.55;66.11
22605;BME280;11469;49.024;8.246;2022-08-19T07:44:50;100107.69;;;23.68;65.38
22605;BME280;11469;49.024;8.246;2022-08-19T07:47:16;100101.97;;;23.68;64.76
22605;BME280;11469;49.024;8.246;2022-08-19T07:49:43;100108.31;;;23.63;64.88
22605;BME280;11469;49.024;8.246;2022-08-19T07:52:09;100104.31;;;23.60;64.17
22605;BME280;11469;49.024;8.246;2022-08-19T07:54:37;100105.44;;;23.63;64.52
22605;BME280;11469;49.024;8.246;2022-08-19T07:57:04;100104.97;;;23.64;65.41
22605;BME280;11469;49.024;8.246;2022-08-19T07:59:30;100106.09;;;23.67;65.29
22605;BME280;11469;49.024;8.246;2022-08-19T08:01:57;100094.19;;;23.81;64.89
22605;BME280;11469;49.024;8.246;2022-08-19T08:04:24;100088.94;;;23.79;64.10
22605;BME280;11469;49.024;8.246;2022-08-19T08:07:08;100097.41;;;23.83;63.33
22605;BME280;11469;49.024;8.246;2022-08-19T08:09:52;100102.53;;;23.88;63.39
22605;BME280;11469;49.024;8.246;2022-08-19T08:12:22;100107.34;;;23.91;63.34
22605;BME280;11469;49.024;8.246;2022-08-19T08:14:52;100097.28;;;23.87;63.78
22605;BME280;11469;49.024;8.246;2022-08-19T08:17:22;100095.78;;;23.95;63.37
22605;BME280;11469;49.024;8.246;2022-08-19T08:19:48;100102.53;;;24.01;63.04
22605;BME280;11469;49.024;8.246;2022-08-19T08:22:19;100100.81;;;24.03;63.38
22605;BME280;11469;49.024;8.246;2022-08-19T08:25:17;100104.38;;;23.95;63.28
22605;BME280;11469;49.024;8.246;2022-08-19T08:27:44;100104.81;;;23.93;63.34
22605;BME280;11469;49.024;8.246;2022-08-19T08:30:14;100108.25;;;24.01;62.74
22605;BME280;11469;49.024;8.246;2022-08-19T08:32:40;100100.34;;;24.05;62.03
22605;BME280;11469;49.024;8.246;2022-08-19T08:35:08;100106.75;;;24.09;61.65
22605;BME280;11469;49.024;8.246;2022-08-19T08:37:34;100116.66;;;24.17;61.30
22605;BME280;11469;49.024;8.246;2022-08-19T08:40:46;100111.16;;;24.23;61.32
22605;BME280;11469;49.024;8.246;2022-08-19T08:42:57;100115.38;;;24.43;60.77
22605;BME280;11469;49.024;8.246;2022-08-19T08:45:26;100112.50;;;24.65;60.26
22605;BME280;11469;49.024;8.246;2022-08-19T08:47:55;100110.44;;;25.09;58.65
22605;BME280;11469;49.024;8.246;2022-08-19T08:50:40;100110.19;;;24.95;58.58
22605;BME280;11469;49.024;8.246;2022-08-19T08:53:08;100118.91;;;25.13;57.76
22605;BME280;11469;49.024;8.246;2022-08-19T08:55:35;100115.69;;;25.33;57.36
22605;BME280;11469;49.024;8.246;2022-08-19T08:58:05;100111.09;;;25.35;56.10
22605;BME280;11469;49.024;8.246;2022-08-19T09:00:38;100117.09;;;25.28;56.82
22605;BME280;11469;49.024;8.246;2022-08-19T09:03:19;100120.44;;;25.27;56.32
22605;BME280;11469;49.024;8.246;2022-08-19T09:05:49;100109.09;;;25.23;56.63
22605;BME280;11469;49.024;8.246;2022-08-19T09:11:08;100112.78;;;25.24;56.51
22605;BME280;11469;49.024;8.246;2022-08-19T09:14:10;100117.38;;;25.21;56.70
22605;BME280;11469;49.024;8.246;2022-08-19T09:16:38;100118.69;;;25.29;56.33
22605;BME280;11469;49.024;8.246;2022-08-19T09:19:06;100108.13;;;25.48;56.01
22605;BME280;11469;49.024;8.246;2022-08-19T09:21:32;100108.59;;;25.56;55.42
22605;BME280;11469;49.024;8.246;2022-08-19T09:24:02;100111.34;;;25.59;55.05
22605;BME280;11469;49.024;8.246;2022-08-19T09:26:28;100108.13;;;25.48;55.50
22605;BME280;11469;49.024;8.246;2022-08-19T09:28:54;100113.75;;;25.30;56.35
22605;BME280;11469;49.024;8.246;2022-08-19T09:31:23;100112.25;;;25.16;55.83
22605;BME280;11469;49.024;8.246;2022-08-19T09:33:49;100110.03;;;25.20;55.96
22605;BME280;11469;49.024;8.246;2022-08-19T09:36:17;100115.69;;;25.33;55.73
22605;BME280;11469;49.024;8.246;2022-08-19T09:38:44;100107.97;;;25.52;54.69
22605;BME280;11469;49.024;8.246;2022-08-19T09:41:17;100110.59;;;25.68;54.58
22605;BME280;11469;49.024;8.246;2022-08-19T09:43:48;100112.94;;;25.60;54.61
22605;BME280;11469;49.024;8.246;2022-08-19T09:46:18;100112.47;;;25.62;54.56
22605;BME280;11469;49.024;8.246;2022-08-19T09:48:45;100118.28;;;25.71;53.72
22605;BME280;11469;49.024;8.246;2022-08-19T09:51:16;100109.06;;;25.54;54.09
22605;BME280;11469;49.024;8.246;2022-08-19T09:53:46;100104.31;;;25.60;54.08
22605;BME280;11469;49.024;8.246;2022-08-19T09:56:12;100105.38;;;25.75;53.00
22605;BME280;11469;49.024;8.246;2022-08-19T09:58:39;100113.22;;;25.84;52.92
22605;BME280;11469;49.024;8.246;2022-08-19T10:01:06;100106.22;;;25.94;52.76
22605;BME280;11469;49.024;8.246;2022-08-19T10:03:32;100117.41;;;25.92;52.83
22605;BME280;11469;49.024;8.246;2022-08-19T10:06:00;100118.81;;;25.88;53.33
22605;BME280;11469;49.024;8.246;2022-08-19T10:08:28;100110.38;;;25.93;52.72
22605;BME280;11469;49.024;8.246;2022-08-19T10:10:55;100110.81;;;25.83;53.52
22605;BME280;11469;49.024;8.246;2022-08-19T10:13:22;100106.81;;;25.80;53.09
22605;BME280;11469;49.024;8.246;2022-08-19T10:15:50;100114.03;;;26.03;52.78
22605;BME280;11469;49.024;8.246;2022-08-19T10:18:18;100114.16;;;25.81;53.94
22605;BME280;11469;49.024;8.246;2022-08-19T10:20:44;100110.84;;;25.92;53.34
22605;BME280;11469;49.024;8.246;2022-08-19T10:23:11;100111.03;;;26.16;52.54
22605;BME280;11469;49.024;8.246;2022-08-19T10:25:37;100105.75;;;26.05;52.65
22605;BME280;11469;49.024;8.246;2022-08-19T10:28:03;100104.81;;;26.08;52.89
22605;BME280;11469;49.024;8.246;2022-08-19T10:30:29;100110.91;;;26.19;52.87
22605;BME280;11469;49.024;8.246;2022-08-19T10:32:54;100104.84;;;26.26;52.88
22605;BME280;11469;49.024;8.246;2022-08-19T10:35:20;100106.34;;;26.40;52.66
22605;BME280;11469;49.024;8.246;2022-08-19T10:37:45;100095.78;;;26.55;51.38
22605;BME280;11469;49.024;8.246;2022-08-19T10:40:11;100101.84;;;26.57;51.10
22605;BME280;11469;49.024;8.246;2022-08-19T10:42:37;100104.88;;;26.72;51.34
22605;BME280;11469;49.024;8.246;2022-08-19T10:45:04;100106.78;;;26.75;51.12
22605;BME280;11469;49.024;8.246;2022-08-19T10:47:31;100099.28;;;26.77;50.85
22605;BME280;11469;49.024;8.246;2022-08-19T10:49:57;100103.28;;;26.80;51.21
22605;BME280;11469;49.024;8.246;2022-08-19T10:52:45;100099.44;;;26.83;50.61
22605;BME280;11469;49.024;8.246;2022-08-19T10:55:11;100101.19;;;26.81;51.04
22605;BME280;11469;49.024;8.246;2022-08-19T10:57:55;100094.50;;;26.84;50.76
22605;BME280;11469;49.024;8.246;2022-08-19T11:00:23;100084.75;;;26.72;50.42
22605;BME280;11469;49.024;8.246;2022-08-19T11:02:49;100077.91;;;26.69;51.40
22605;BME280;11469;49.024;8.246;2022-08-19T11:05:15;100077.91;;;26.69;51.42
22605;BME280;11469;49.024;8.246;2022-08-19T11:07:41;100073.91;;;26.76;51.17
22605;BME280;11469;49.024;8.246;2022-08-19T11:10:09;100084.91;;;26.77;49.85
22605;BME280;11469;49.024;8.246;2022-08-19T11:12:37;100083.47;;;26.91;49.87
22605;BME280;11469;49.024;8.246;2022-08-19T11:15:07;100073.66;;;27.16;49.75
22605;BME280;11469;49.024;8.246;2022-08-19T11:17:34;100074.25;;;27.38;49.15
22605;BME280;11469;49.024;8.246;2022-08-19T11:20:01;100065.84;;;27.50;48.24
22605;BME280;11469;49.024;8.246;2022-08-19T11:22:29;100072.38;;;27.68;48.00
22605;BME280;11469;49.024;8.246;2022-08-19T11:24:54;100060.63;;;27.81;49.13
22605;BME280;11469;49.024;8.246;2022-08-19T11:27:20;100059.34;;;27.82;48.94
22605;BME280;11469;49.024;8.246;2022-08-19T11:29:46;100051.72;;;27.70;48.35
22605;BME280;11469;49.024;8.246;2022-08-19T11:32:11;100056.72;;;27.60;48.27
22605;BME280;11469;49.024;8.246;2022-08-19T11:34:38;100051.78;;;27.52;48.05
22605;BME280;11469;49.024;8.246;2022-08-19T11:37:04;100049.63;;;27.37;48.01
22605;BME280;11469;49.024;8.246;2022-08-19T11:39:32;100051.94;;;27.15;49.15
22605;BME280;11469;49.024;8.246;2022-08-19T11:41:59;100045.38;;;27.24;48.67
22605;BME280;11469;49.024;8.246;2022-08-19T11:44:25;100044.75;;;27.20;48.96
22605;BME280;11469;49.024;8.246;2022-08-19T11:46:51;100040.75;;;27.17;49.07
22605;BME280;11469;49.024;8.246;2022-08-19T11:49:19;100039.47;;;27.18;49.17
22605;BME280;11469;49.024;8.246;2022-08-19T11:51:45;100033.25;;;27.20;49.04
22605;BME280;11469;49.024;8.246;2022-08-19T11:54:12;100045.06;;;27.22;49.11
22605;BME280;11469;49.024;8.246;2022-08-19T11:56:38;100050.16;;;27.27;50.79
22605;BME280;11469;49.024;8.246;2022-08-19T11:59:04;100045.84;;;27.22;49.09
22605;BME280;11469;49.024;8.246;2022-08-19T12:01:30;100043.63;;;27.17;49.22
22605;BME280;11469;49.024;8.246;2022-08-19T12:03:58;100044.56;;;27.23;49.15
22605;BME280;11469;49.024;8.246;2022-08-19T12:06:26;100039.00;;;27.53;49.42
22605;BME280;11469;49.024;8.246;2022-08-19T12:08:54;100040.97;;;27.80;48.12
22605;BME280;11469;49.024;8.246;2022-08-19T12:11:20;100040.78;;;27.83;47.54
22605;BME280;11469;49.024;8.246;2022-08-19T12:13:45;100041.28;;;27.82;46.09
22605;BME280;11469;49.024;8.246;2022-08-19T12:16:17;100038.31;;;27.91;46.06
22605;BME280;11469;49.024;8.246;2022-08-19T12:18:44;100035.84;;;27.98;46.57
22605;BME280;11469;49.024;8.246;2022-08-19T12:21:12;100037.50;;;28.14;43.50
22605;BME280;11469;49.024;8.246;2022-08-19T12:23:40;100033.72;;;28.32;43.92
22605;BME280;11469;49.024;8.246;2022-08-19T12:26:05;100034.88;;;28.64;43.57
22605;BME280;11469;49.024;8.246;2022-08-19T12:28:31;100036.47;;;28.94;41.60
22605;BME280;11469;49.024;8.246;2022-08-19T12:30:57;100026.34;;;29.14;40.67
22605;BME280;11469;49.024;8.246;2022-08-19T12:33:22;100027.44;;;29.16;38.61
22605;BME280;11469;49.024;8.246;2022-08-19T12:35:50;100026.72;;;29.21;38.17
22605;BME280;11469;49.024;8.246;2022-08-19T12:38:16;100021.84;;;29.13;37.45
22605;BME280;11469;49.024;8.246;2022-08-19T12:40:45;100029.91;;;28.94;36.89
22605;BME280;11469;49.024;8.246;2022-08-19T12:43:11;100022.47;;;28.87;37.04
22605;BME280;11469;49.024;8.246;2022-08-19T12:45:37;100026.34;;;29.14;36.75
22605;BME280;11469;49.024;8.246;2022-08-19T12:48:03;100028.47;;;29.33;36.15
22605;BME280;11469;49.024;8.246;2022-08-19T12:50:29;100025.09;;;29.50;36.59
22605;BME280;11469;49.024;8.246;2022-08-19T12:52:56;100024.25;;;29.64;36.43
22605;BME280;11469;49.024;8.246;2022-08-19T12:55:22;100024.84;;;29.68;35.95
22605;BME280;11469;49.024;8.246;2022-08-19T12:57:47;100028.66;;;29.59;35.31
22605;BME280;11469;49.024;8.246;2022-08-19T13:00:20;100030.56;;;29.48;36.02
22605;BME280;11469;49.024;8.246;2022-08-19T13:02:47;100028.19;;;29.46;35.40